Time;durP1;ratioP1;P1;durP2;ratioP2;P2;SDS_P1;SDS_P2;PMS_P1;PMS_P2;Temp;Humidity;BMP_temperature;BMP_pressure;BME280_temperature;BME280_humidity;BME280_pressure;Samples;Min_cycle;Max_cycle;Signal;HPM_P1;HPM_P2
2023/03/07 00:01:21;;;;;;;;;34.67;33.00;;;;;5.04;57.06;98426.78;5096096;27;46446;-79
2023/03/07 00:03:47;;;;;;;;;44.00;38.00;;;;;5.02;56.86;98426.84;5081550;27;45347;-78
2023/03/07 00:06:12;;;;;;;;;44.67;36.67;;;;;5.03;56.58;98431.16;5094114;27;45363;-79
2023/03/07 00:08:42;;;;;;;;;41.00;32.00;;;;;5.03;56.79;98433.75;5095783;27;45250;-79
2023/03/07 00:11:08;;;;;;;;;32.00;30.33;;;;;5.02;57.01;98433.84;5094804;27;46722;-78
2023/03/07 00:13:35;;;;;;;;;44.00;36.00;;;;;5.02;56.49;98429.47;5095787;27;45356;-79
2023/03/07 00:16:13;;;;;;;;;40.00;33.33;;;;;5.01;58.27;98430.38;5096010;27;45422;-78
2023/03/07 00:18:40;;;;;;;;;34.00;32.33;;;;;4.99;57.73;98426.09;5095575;27;45430;-79
2023/03/07 00:21:12;;;;;;;;;42.67;35.67;;;;;5.00;57.32;98428.66;5095039;27;45469;-79
2023/03/07 00:23:40;;;;;;;;;42.00;35.00;;;;;5.00;57.20;98425.19;5095226;27;45271;-78
2023/03/07 00:26:17;;;;;;;;;41.67;36.67;;;;;4.99;56.94;98421.72;5095281;27;45386;-79
2023/03/07 00:28:46;;;;;;;;;43.67;38.00;;;;;4.98;57.40;98420.00;5095616;27;45386;-78
2023/03/07 00:31:12;;;;;;;;;43.00;38.00;;;;;4.96;57.67;98419.19;5095446;27;45929;-79
2023/03/07 00:33:38;;;;;;;;;53.67;39.67;;;;;4.90;58.40;98414.13;5095727;27;45241;-79
2023/03/07 00:36:15;;;;;;;;;36.00;32.33;;;;;4.83;58.48;98417.84;5093939;27;45384;-79
2023/03/07 00:38:41;;;;;;;;;45.00;37.67;;;;;4.78;58.96;98414.47;5094094;27;45489;-81
2023/03/07 00:41:13;;;;;;;;;45.00;36.67;;;;;4.76;58.38;98421.50;5095426;27;45414;-77
2023/03/07 00:43:39;;;;;;;;;47.67;38.00;;;;;4.70;58.61;98417.28;5095375;27;45510;-80
2023/03/07 00:46:05;;;;;;;;;50.00;40.00;;;;;4.67;58.71;98411.34;5094092;27;45447;-79
2023/03/07 00:48:36;;;;;;;;;53.00;39.33;;;;;4.65;59.03;98419.19;5095376;27;45423;-80
2023/03/07 00:51:03;;;;;;;;;41.33;35.33;;;;;4.64;59.23;98425.31;5095061;27;46103;-79
2023/03/07 00:53:28;;;;;;;;;52.67;40.00;;;;;4.61;58.93;98420.19;5093778;27;45344;-79
2023/03/07 00:55:59;;;;;;;;;47.33;41.33;;;;;4.60;58.87;98421.06;5094941;27;45456;-78
2023/03/07 00:58:29;;;;;;;;;47.00;40.00;;;;;4.61;58.93;98414.09;5094680;27;45305;-79
2023/03/07 01:00:55;;;;;;;;;51.00;39.33;;;;;4.58;58.16;98412.44;5094401;27;46626;-79
2023/03/07 01:03:22;;;;;;;;;51.67;39.33;;;;;4.56;58.36;98404.63;5094954;27;45431;-78
2023/03/07 01:05:48;;;;;;;;;49.33;43.00;;;;;4.55;58.12;98408.13;5095836;27;45376;-79
2023/03/07 01:08:14;;;;;;;;;50.00;42.67;;;;;4.54;59.05;98409.03;5094990;27;45413;-78
2023/03/07 01:10:39;;;;;;;;;47.67;39.33;;;;;4.52;59.04;98405.59;5095201;27;46322;-79
2023/03/07 01:13:05;;;;;;;;;54.00;45.00;;;;;4.49;58.87;98395.28;5094422;27;45393;-79
2023/03/07 01:15:31;;;;;;;;;49.00;38.33;;;;;4.48;58.95;98390.94;5094971;27;45380;-79
2023/03/07 01:17:56;;;;;;;;;47.67;40.33;;;;;4.47;58.94;98389.25;5097956;27;45265;-78
2023/03/07 01:20:22;;;;;;;;;49.67;41.33;;;;;4.46;58.59;98390.13;5098768;27;46412;-78
2023/03/07 01:22:47;;;;;;;;;56.33;43.33;;;;;4.44;58.45;98380.63;5098447;27;45371;-78
2023/03/07 01:25:13;;;;;;;;;55.00;43.67;;;;;4.43;58.42;98391.97;5098341;27;45757;-78
2023/03/07 01:27:38;;;;;;;;;49.67;39.67;;;;;4.41;58.36;98389.41;5098809;27;45232;-78
2023/03/07 01:30:06;;;;;;;;;57.67;40.00;;;;;4.39;58.39;98378.13;5098663;27;45508;-78
2023/03/07 01:32:31;;;;;;;;;48.00;41.67;;;;;4.37;58.11;98381.69;5097073;27;45442;-78
2023/03/07 01:34:57;;;;;;;;;50.00;40.33;;;;;4.34;58.54;98380.03;5098451;27;45446;-79
2023/03/07 01:37:22;;;;;;;;;53.33;43.00;;;;;4.34;58.46;98381.78;5097759;27;45545;-78
2023/03/07 01:39:52;;;;;;;;;46.67;39.67;;;;;4.30;58.29;98365.34;5098373;27;46329;-78
2023/03/07 01:42:18;;;;;;;;;51.00;39.00;;;;;4.29;58.35;98363.66;5098073;27;45394;-78
2023/03/07 01:45:07;;;;;;;;;46.67;38.00;;;;;4.29;58.23;98368.88;5098613;27;45383;-78
2023/03/07 01:47:33;;;;;;;;;43.00;37.33;;;;;4.26;58.21;98358.50;5085024;27;45413;-79
2023/03/07 01:50:03;;;;;;;;;44.33;37.00;;;;;4.23;58.06;98363.81;5096647;27;45702;-79
2023/03/07 01:52:34;;;;;;;;;45.33;36.67;;;;;4.22;58.51;98364.69;5084914;27;45325;-79
2023/03/07 01:55:15;;;;;;;;;41.00;28.33;;;;;4.18;58.36;98363.09;5098331;27;45298;-79
2023/03/07 01:57:43;;;;;;;;;54.00;41.00;;;;;4.16;58.23;98365.72;5098143;27;45313;-78
2023/03/07 02:00:17;;;;;;;;;49.00;40.33;;;;;4.15;58.39;98371.00;5097755;27;46736;-78
2023/03/07 02:02:46;;;;;;;;;48.00;40.00;;;;;4.12;58.93;98364.09;5113668;27;45371;-78
2023/03/07 02:05:20;;;;;;;;;38.67;35.00;;;;;4.09;59.08;98364.16;5097578;27;45490;-77
2023/03/07 02:07:48;;;;;;;;;51.67;41.00;;;;;4.08;59.35;98362.47;5097370;27;45329;-78
2023/03/07 02:10:17;;;;;;;;;46.67;39.00;;;;;4.05;59.34;98364.28;5097607;27;45481;-78
2023/03/07 02:12:44;;;;;;;;;41.33;37.33;;;;;4.06;59.42;98364.25;5097535;27;45506;-78
2023/03/07 02:15:11;;;;;;;;;51.67;37.67;;;;;4.03;59.14;98360.84;5097688;27;45379;-78
2023/03/07 02:17:38;;;;;;;;;38.67;32.00;;;;;4.00;59.19;98359.22;5097584;27;45246;-78
2023/03/07 02:20:10;;;;;;;;;43.67;37.67;;;;;3.97;59.72;98348.84;5097215;27;46016;-78
2023/03/07 02:22:35;;;;;;;;;40.33;36.33;;;;;3.93;59.69;98355.03;5096715;27;45351;-78
2023/03/07 02:25:34;;;;;;;;;44.33;38.33;;;;;3.91;59.80;98354.22;5096148;27;45551;-78
2023/03/07 02:28:03;;;;;;;;;43.33;38.67;;;;;3.88;60.08;98353.44;5076596;27;45578;-78
2023/03/07 02:30:28;;;;;;;;;48.00;39.00;;;;;3.85;60.32;98351.78;5097240;27;45952;-78
2023/03/07 02:32:54;;;;;;;;;47.67;39.00;;;;;3.83;60.36;98356.19;5097617;27;45435;-78
2023/03/07 02:35:22;;;;;;;;;44.00;38.67;;;;;3.81;60.74;98351.00;5097824;27;45294;-78
2023/03/07 02:37:56;;;;;;;;;29.00;26.67;;;;;3.79;60.78;98352.78;5097420;27;45444;-78
2023/03/07 02:40:24;;;;;;;;;45.33;40.00;;;;;3.75;60.58;98345.94;5113046;27;47907;-79
2023/03/07 02:42:54;;;;;;;;;47.67;38.00;;;;;3.70;60.70;98345.19;5095854;27;45413;-78
2023/03/07 02:45:20;;;;;;;;;50.00;38.00;;;;;3.65;60.48;98339.25;5097264;27;45280;-78
2023/03/07 02:47:45;;;;;;;;;49.67;36.33;;;;;3.63;60.55;98332.34;5096922;27;45378;-78
2023/03/07 02:50:13;;;;;;;;;40.00;36.00;;;;;3.61;60.67;98336.75;5094962;27;47805;-78
2023/03/07 02:52:39;;;;;;;;;49.33;34.33;;;;;3.58;60.29;98335.06;5094895;27;45570;-78
2023/03/07 02:55:06;;;;;;;;;37.00;35.00;;;;;3.56;60.11;98331.66;5095010;27;45531;-78
2023/03/07 02:57:32;;;;;;;;;40.00;32.33;;;;;3.56;60.07;98333.41;5097042;27;45517;-78
2023/03/07 02:59:58;;;;;;;;;38.67;32.67;;;;;3.53;59.84;98336.94;5096698;27;46369;-78
2023/03/07 03:02:24;;;;;;;;;44.67;35.33;;;;;3.52;60.27;98335.22;5097458;27;45412;-78
2023/03/07 03:04:49;;;;;;;;;48.33;40.33;;;;;3.48;60.78;98339.66;5097260;27;45347;-78
2023/03/07 03:07:15;;;;;;;;;49.00;38.00;;;;;3.43;61.12;98333.69;5096753;27;45312;-78
2023/03/07 03:09:40;;;;;;;;;37.67;35.00;;;;;3.38;60.99;98327.75;5097004;27;46293;-78
2023/03/07 03:12:06;;;;;;;;;39.67;34.00;;;;;3.32;60.95;98327.91;5097050;27;45378;-79
2023/03/07 03:14:31;;;;;;;;;45.33;35.67;;;;;3.29;60.96;98324.50;5096986;27;45318;-78
2023/03/07 03:16:57;;;;;;;;;43.67;35.00;;;;;3.24;61.25;98329.81;5096957;27;45405;-78
2023/03/07 03:19:22;;;;;;;;;43.00;39.33;;;;;3.19;60.76;98320.38;5096374;27;45722;-78
2023/03/07 03:21:48;;;;;;;;;42.00;35.67;;;;;3.12;61.04;98315.34;5096605;27;45392;-78
2023/03/07 03:24:13;;;;;;;;;43.00;35.67;;;;;3.08;62.13;98318.03;5095172;27;45352;-78
2023/03/07 03:26:39;;;;;;;;;38.33;34.33;;;;;3.03;61.63;98317.28;5095276;27;45491;-78
2023/03/07 03:29:05;;;;;;;;;45.67;39.00;;;;;3.00;61.73;98317.38;5096146;27;46140;-78
2023/03/07 03:31:32;;;;;;;;;39.33;37.67;;;;;3.00;61.73;98320.84;5096782;27;45402;-78
2023/03/07 03:33:57;;;;;;;;;38.00;33.67;;;;;3.01;62.16;98316.50;5096507;27;45483;-78
2023/03/07 03:36:27;;;;;;;;;40.33;34.00;;;;;3.03;61.57;98310.34;5096278;27;45406;-78
2023/03/07 03:38:54;;;;;;;;;35.33;31.67;;;;;3.05;61.64;98312.91;5095838;27;46484;-78
2023/03/07 03:41:20;;;;;;;;;42.00;34.33;;;;;3.05;62.37;98310.31;5094801;27;45681;-78
2023/03/07 03:43:46;;;;;;;;;31.67;27.00;;;;;3.06;62.67;98315.47;5111513;27;45317;-78
2023/03/07 03:46:13;;;;;;;;;40.33;35.67;;;;;3.08;62.59;98315.44;5094686;27;45689;-78
2023/03/07 03:48:39;;;;;;;;;38.00;32.00;;;;;3.09;62.66;98319.75;5095376;27;46177;-78
2023/03/07 03:51:04;;;;;;;;;34.00;31.67;;;;;3.09;62.50;98314.56;5095966;27;45424;-78
2023/03/07 03:53:32;;;;;;;;;29.67;27.67;;;;;3.11;61.61;98310.16;5096104;27;45574;-78
2023/03/07 03:56:05;;;;;;;;;36.67;31.33;;;;;3.11;61.16;98297.16;5095061;27;45692;-78
2023/03/07 03:58:32;;;;;;;;;28.33;27.00;;;;;3.11;61.31;98297.16;5095877;27;46232;-78
2023/03/07 04:01:10;;;;;;;;;33.33;29.00;;;;;3.11;61.30;98298.00;5095899;27;45323;-78
2023/03/07 04:03:42;;;;;;;;;40.33;31.33;;;;;3.11;61.09;98298.00;5095799;27;45440;-78
2023/03/07 04:06:10;;;;;;;;;35.00;28.00;;;;;3.10;61.46;98292.84;5095316;27;45307;-78
2023/03/07 04:08:36;;;;;;;;;30.67;28.00;;;;;3.10;61.07;98290.22;5095760;27;45539;-78
2023/03/07 04:11:03;;;;;;;;;37.67;35.67;;;;;3.08;61.34;98285.06;5095752;27;45343;-78
2023/03/07 04:13:29;;;;;;;;;44.00;34.33;;;;;3.06;61.17;98285.97;5095752;27;45443;-78
2023/03/07 04:15:55;;;;;;;;;39.67;35.67;;;;;3.04;60.96;98279.94;5095249;27;45436;-78
2023/03/07 04:18:21;;;;;;;;;32.67;30.00;;;;;3.03;61.31;98281.69;5095748;27;45556;-78
2023/03/07 04:20:48;;;;;;;;;42.00;35.00;;;;;3.00;61.33;98275.72;5095384;27;45397;-78
2023/03/07 04:23:15;;;;;;;;;42.67;33.00;;;;;2.98;61.64;98283.56;5095409;27;45371;-78
2023/03/07 04:25:55;;;;;;;;;43.33;35.00;;;;;2.94;62.13;98279.31;5095363;27;45636;-78
2023/03/07 04:28:22;;;;;;;;;50.00;39.00;;;;;2.90;62.15;98280.28;5095135;27;45586;-78
2023/03/07 04:30:48;;;;;;;;;37.00;31.67;;;;;2.88;61.57;98283.78;5095356;27;45245;-78
2023/03/07 04:33:15;;;;;;;;;41.67;37.67;;;;;2.86;61.92;98278.63;5094257;27;45292;-78
2023/03/07 04:35:40;;;;;;;;;39.67;35.33;;;;;2.85;62.50;98276.91;5095313;27;45584;-78
2023/03/07 04:38:06;;;;;;;;;41.00;34.33;;;;;2.84;62.50;98280.44;5094838;27;46627;-78
2023/03/07 04:40:32;;;;;;;;;42.67;36.00;;;;;2.85;62.75;98276.91;5093939;27;45651;-79
2023/03/07 04:42:58;;;;;;;;;34.67;32.00;;;;;2.86;62.89;98282.97;5095327;27;45447;-79
2023/03/07 04:45:23;;;;;;;;;36.33;34.67;;;;;2.84;63.01;98290.00;5095113;27;45420;-79
2023/03/07 04:47:49;;;;;;;;;36.33;34.00;;;;;2.83;63.06;98298.69;5095727;27;46228;-79
2023/03/07 04:50:16;;;;;;;;;50.33;41.67;;;;;2.82;63.72;98295.22;5094407;27;45428;-78
2023/03/07 04:52:42;;;;;;;;;51.00;42.00;;;;;2.78;63.39;98285.75;5099330;27;45425;-78
2023/03/07 04:55:09;;;;;;;;;51.33;38.33;;;;;2.77;63.53;98291.84;5098954;27;45391;-78
2023/03/07 04:57:34;;;;;;;;;43.67;39.33;;;;;2.73;63.66;98278.06;5098938;27;46218;-78
2023/03/07 05:00:00;;;;;;;;;49.67;40.67;;;;;2.72;63.76;98278.94;5097224;27;45471;-78
2023/03/07 05:02:25;;;;;;;;;43.67;38.00;;;;;2.68;63.45;98282.50;5097823;27;45407;-78
2023/03/07 05:04:51;;;;;;;;;44.67;37.67;;;;;2.66;63.90;98281.69;5098704;27;45361;-78
2023/03/07 05:07:16;;;;;;;;;49.00;41.67;;;;;2.65;63.81;98279.97;5098539;27;45380;-78
2023/03/07 05:09:41;;;;;;;;;40.00;34.33;;;;;2.63;64.02;98276.56;5097348;27;45487;-78
2023/03/07 05:12:07;;;;;;;;;46.33;40.00;;;;;2.62;64.08;98279.19;5099091;27;45471;-78
2023/03/07 05:14:32;;;;;;;;;47.67;38.33;;;;;2.60;64.22;98286.16;5098487;27;45379;-79
2023/03/07 05:16:58;;;;;;;;;43.33;37.00;;;;;2.59;64.16;98280.09;5097121;27;47507;-78
2023/03/07 05:19:23;;;;;;;;;49.67;37.33;;;;;2.59;64.15;98277.50;5098283;27;45383;-78
2023/03/07 05:21:49;;;;;;;;;54.00;40.00;;;;;2.58;64.67;98269.72;5098054;27;45460;-78
2023/03/07 05:24:14;;;;;;;;;48.67;41.00;;;;;2.57;64.67;98274.06;5098475;27;45431;-78
2023/03/07 05:26:40;;;;;;;;;48.33;40.67;;;;;2.57;64.82;98262.81;5098563;27;45566;-78
2023/03/07 05:29:06;;;;;;;;;41.33;39.00;;;;;2.56;65.13;98269.75;5098390;27;45372;-78
2023/03/07 05:31:31;;;;;;;;;36.00;34.67;;;;;2.55;64.67;98265.44;5098768;27;45348;-78
2023/03/07 05:33:57;;;;;;;;;48.67;41.33;;;;;2.54;64.92;98265.47;5098011;27;45324;-78
2023/03/07 05:36:22;;;;;;;;;48.33;39.00;;;;;2.54;64.80;98268.06;5097222;27;45335;-78
2023/03/07 05:38:47;;;;;;;;;51.33;39.67;;;;;2.54;65.11;98262.88;5095949;27;45570;-78
2023/03/07 05:41:13;;;;;;;;;46.33;40.00;;;;;2.51;64.89;98256.03;5096993;27;45377;-78
2023/03/07 05:43:38;;;;;;;;;54.33;42.67;;;;;2.50;65.13;98253.44;5098155;27;45576;-78
2023/03/07 05:46:04;;;;;;;;;58.67;42.33;;;;;2.49;64.92;98254.34;5098172;27;45383;-78
2023/03/07 05:48:29;;;;;;;;;52.00;41.33;;;;;2.48;65.29;98245.69;5098096;27;45489;-78
2023/03/07 05:50:59;;;;;;;;;57.50;47.00;;;;;2.45;65.41;98233.59;5097860;27;45298;-78
2023/03/07 05:53:24;;;;;;;;;59.25;46.75;;;;;2.48;65.33;98237.00;5094243;27;45729;-79
2023/03/07 05:55:49;;;;;;;;;42.33;38.67;;;;;2.45;65.18;98236.19;5097169;27;45374;-78
2023/03/07 05:58:15;;;;;;;;;55.67;43.33;;;;;2.47;65.35;98236.16;5097871;27;45402;-78
2023/03/07 06:00:40;;;;;;;;;50.00;42.00;;;;;2.48;65.24;98237.00;5096904;27;45435;-78
2023/03/07 06:03:05;;;;;;;;;46.33;41.00;;;;;2.48;65.19;98239.63;5097097;27;45391;-78
2023/03/07 06:05:31;;;;;;;;;51.50;41.25;;;;;2.48;64.69;98231.81;5095844;27;47784;-77
2023/03/07 06:07:56;;;;;;;;;47.67;39.33;;;;;2.49;65.07;98233.53;5094996;27;45405;-80
2023/03/07 06:10:22;;;;;;;;;45.33;41.00;;;;;2.49;65.12;98238.72;5097705;27;45884;-78
2023/03/07 06:12:52;;;;;;;;;53.75;46.00;;;;;2.47;65.17;98223.16;5096218;27;45781;-78
2023/03/07 06:15:18;;;;;;;;;45.67;40.00;;;;;2.48;65.41;98229.22;5112966;27;48454;-78
2023/03/07 06:17:44;;;;;;;;;50.33;41.67;;;;;2.47;65.25;98222.28;5097330;27;45393;-79
2023/03/07 06:20:10;;;;;;;;;55.25;43.00;;;;;2.44;65.00;98226.66;5096048;27;45401;-80
2023/03/07 06:22:37;;;;;;;;;50.33;41.67;;;;;2.41;65.29;98224.13;5096783;27;45580;-79
2023/03/07 06:25:07;;;;;;;;;47.33;41.00;;;;;2.40;65.47;98214.63;5096979;27;45585;-79
2023/03/07 06:27:33;;;;;;;;;43.33;38.33;;;;;2.41;65.30;98218.06;5094833;27;45809;-79
2023/03/07 06:29:58;;;;;;;;;43.00;39.33;;;;;2.42;65.25;98222.38;5096741;27;45403;-79
2023/03/07 06:32:24;;;;;;;;;53.00;42.00;;;;;2.44;65.29;98229.28;5096327;27;45413;-79
2023/03/07 06:34:49;;;;;;;;;53.00;42.00;;;;;2.46;65.22;98226.66;5095973;27;45740;-78
2023/03/07 06:37:15;;;;;;;;;52.25;44.50;;;;;2.48;65.62;98231.81;5095658;27;45474;-78
2023/03/07 06:39:41;;;;;;;;;57.00;44.50;;;;;2.50;65.29;98223.09;5094939;27;45281;-78
2023/03/07 06:42:07;;;;;;;;;52.33;42.00;;;;;2.51;65.30;98221.34;5096186;27;45350;-78
2023/03/07 06:44:32;;;;;;;;;48.50;39.75;;;;;2.50;65.17;98225.69;5096360;27;45614;-78
2023/03/07 06:46:57;;;;;;;;;45.00;37.33;;;;;2.50;65.07;98220.50;5095117;27;45299;-79
2023/03/07 06:49:23;;;;;;;;;53.00;41.67;;;;;2.52;64.98;98225.63;5095256;27;45618;-79
2023/03/07 06:51:48;;;;;;;;;56.00;42.00;;;;;2.52;65.13;98221.28;5095840;27;45593;-79
2023/03/07 06:54:14;;;;;;;;;59.25;45.25;;;;;2.54;65.10;98208.25;5096100;27;45997;-79
2023/03/07 06:56:39;;;;;;;;;50.33;41.33;;;;;2.55;65.01;98200.41;5095053;27;45393;-79
2023/03/07 06:59:05;;;;;;;;;48.33;41.33;;;;;2.57;65.14;98219.44;5096651;27;45415;-79
2023/03/07 07:01:30;;;;;;;;;59.50;47.25;;;;;2.57;65.32;98210.78;5096134;27;45499;-79
2023/03/07 07:03:56;;;;;;;;;52.75;41.75;;;;;2.60;65.12;98218.53;5095902;27;45378;-79
2023/03/07 07:06:22;;;;;;;;;51.00;43.33;;;;;2.63;64.97;98215.84;5095422;27;45372;-81
2023/03/07 07:08:47;;;;;;;;;52.33;43.33;;;;;2.67;65.22;98217.50;5095481;27;45424;-79
2023/03/07 07:11:12;;;;;;;;;38.00;30.67;;;;;2.66;65.08;98221.84;5095253;27;45418;-79
2023/03/07 07:13:38;;;;;;;;;48.33;38.33;;;;;2.71;64.97;98224.31;5095112;27;45306;-79
2023/03/07 07:16:05;;;;;;;;;49.33;40.00;;;;;2.73;65.07;98219.94;5094863;27;45367;-79
2023/03/07 07:18:31;;;;;;;;;52.33;42.00;;;;;2.78;65.19;98216.34;5095950;27;45383;-79
2023/03/07 07:20:56;;;;;;;;;60.33;45.33;;;;;2.82;64.80;98219.75;5095172;27;45382;-79
2023/03/07 07:23:22;;;;;;;;;56.00;42.00;;;;;2.86;64.78;98229.16;5095559;27;46619;-79
2023/03/07 07:25:47;;;;;;;;;61.00;45.75;;;;;2.90;64.84;98225.59;5095233;27;45381;-79
2023/03/07 07:28:13;;;;;;;;;54.50;44.00;;;;;2.93;64.90;98229.91;5096130;27;45366;-80
2023/03/07 07:30:38;;;;;;;;;56.50;44.00;;;;;2.96;64.61;98235.03;5095286;27;45364;-80
2023/03/07 07:33:04;;;;;;;;;49.75;41.00;;;;;2.97;64.53;98227.19;5094818;27;45375;-78
2023/03/07 07:35:29;;;;;;;;;47.67;41.00;;;;;2.99;64.62;98227.16;5095262;27;45381;-80
2023/03/07 07:37:55;;;;;;;;;52.67;44.00;;;;;3.04;64.67;98227.88;5094925;27;45514;-79
2023/03/07 07:40:21;;;;;;;;;55.75;44.50;;;;;3.08;64.41;98237.34;5095012;27;45521;-80
2023/03/07 07:42:53;;;;;;;;;61.00;42.25;;;;;3.11;64.55;98235.50;5094780;27;45469;-80
2023/03/07 07:45:22;;;;;;;;;49.00;43.00;;;;;3.17;64.58;98229.31;5094739;27;45362;-79
2023/03/07 07:47:49;;;;;;;;;54.00;45.75;;;;;3.24;64.44;98241.25;5110283;27;45438;-80
2023/03/07 07:50:19;;;;;;;;;52.25;43.25;;;;;3.29;64.47;98233.34;5094901;27;45438;-80
2023/03/07 07:52:45;;;;;;;;;54.33;45.00;;;;;3.35;63.95;98228.81;5107688;27;47317;-79
2023/03/07 07:55:14;;;;;;;;;59.00;47.75;;;;;3.43;63.84;98231.25;5095563;27;45402;-79
2023/03/07 07:57:41;;;;;;;;;52.00;44.00;;;;;3.49;63.98;98229.34;5095561;27;45326;-80
2023/03/07 08:00:09;;;;;;;;;55.67;44.33;;;;;3.55;63.94;98215.28;5094973;27;45471;-79
2023/03/07 08:02:35;;;;;;;;;55.33;43.67;;;;;3.63;63.57;98215.94;5093708;27;45588;-80
2023/03/07 08:05:00;;;;;;;;;58.25;47.25;;;;;3.71;63.40;98228.75;5094635;27;45464;-80
2023/03/07 08:07:26;;;;;;;;;55.50;46.75;;;;;3.78;63.11;98227.69;5094697;27;45380;-78
2023/03/07 08:09:51;;;;;;;;;56.67;42.00;;;;;3.82;62.85;98219.75;5093416;27;45473;-78
2023/03/07 08:12:16;;;;;;;;;59.00;43.33;;;;;3.89;62.94;98230.00;5094831;27;45982;-78
2023/03/07 08:14:42;;;;;;;;;46.33;38.67;;;;;3.96;62.58;98226.34;5093891;27;45497;-79
2023/03/07 08:17:07;;;;;;;;;40.33;36.00;;;;;4.02;62.29;98223.56;5094765;27;45391;-79
2023/03/07 08:19:33;;;;;;;;;38.00;32.33;;;;;4.08;62.63;98211.19;5109846;27;45634;-79
2023/03/07 08:21:58;;;;;;;;;53.67;42.33;;;;;4.15;61.99;98207.53;5093686;27;46140;-79
2023/03/07 08:24:24;;;;;;;;;47.33;38.00;;;;;4.23;62.08;98196.84;5094450;27;45398;-79
2023/03/07 08:26:49;;;;;;;;;57.67;44.67;;;;;4.31;62.01;98197.50;5092450;27;45420;-79
2023/03/07 08:29:18;;;;;;;;;56.67;45.00;;;;;4.37;61.85;98194.66;5094843;27;45542;-80
2023/03/07 08:31:44;;;;;;;;;45.33;39.00;;;;;4.42;61.65;98184.97;5092859;27;46932;-79
2023/03/07 08:34:10;;;;;;;;;43.00;37.33;;;;;4.49;61.35;98173.44;5094488;27;45379;-79
2023/03/07 08:36:36;;;;;;;;;51.33;39.00;;;;;4.56;61.24;98176.69;5095051;27;45402;-79
2023/03/07 08:39:01;;;;;;;;;69.00;50.50;;;;;4.63;61.17;98167.78;5093207;27;45559;-79
2023/03/07 08:41:27;;;;;;;;;52.33;39.67;;;;;4.73;61.15;98156.13;5094819;27;45648;-79
2023/03/07 08:43:53;;;;;;;;;47.67;39.00;;;;;4.83;60.59;98152.34;5094523;27;45438;-79
2023/03/07 08:46:19;;;;;;;;;50.67;37.67;;;;;4.90;59.94;98151.22;5094845;27;45260;-79
2023/03/07 08:48:44;;;;;;;;;51.67;39.00;;;;;4.98;60.02;98148.38;5093815;27;45451;-79
2023/03/07 08:51:14;;;;;;;;;40.00;35.67;;;;;5.07;59.46;98132.38;5094066;27;45882;-79
2023/03/07 08:53:41;;;;;;;;;53.67;44.67;;;;;5.17;59.34;98125.09;5092963;27;45817;-80
2023/03/07 08:56:09;;;;;;;;;46.00;38.67;;;;;5.27;59.60;98129.09;5109549;27;45410;-80
2023/03/07 08:58:38;;;;;;;;;50.00;40.33;;;;;5.37;59.33;98132.22;5093484;27;45521;-80
2023/03/07 09:01:05;;;;;;;;;51.00;41.33;;;;;5.48;59.15;98128.34;5094056;27;45335;-81
2023/03/07 09:03:31;;;;;;;;;45.00;38.67;;;;;5.60;59.17;98117.44;5093488;27;45351;-81
2023/03/07 09:05:57;;;;;;;;;44.33;35.00;;;;;5.70;58.74;98112.72;5093550;27;45354;-80
2023/03/07 09:08:22;;;;;;;;;53.33;41.00;;;;;5.78;58.50;98099.38;5093439;27;45493;-80
2023/03/07 09:10:48;;;;;;;;;54.00;40.00;;;;;5.84;58.20;98094.78;5093752;27;45359;-80
2023/03/07 09:13:17;;;;;;;;;53.00;40.33;;;;;5.93;58.00;98088.34;5093984;27;45426;-80
2023/03/07 09:15:43;;;;;;;;;40.00;36.33;;;;;5.99;57.60;98077.66;5093855;27;45321;-80
2023/03/07 09:18:09;;;;;;;;;43.67;39.33;;;;;6.05;57.28;98074.78;5092994;27;45470;-80
2023/03/07 09:20:37;;;;;;;;;53.67;40.33;;;;;6.13;57.10;98075.38;5094359;27;46675;-81
2023/03/07 09:23:03;;;;;;;;;45.67;39.00;;;;;6.19;56.70;98059.44;5092678;27;45445;-80
2023/03/07 09:25:31;;;;;;;;;46.67;38.33;;;;;6.30;56.88;98061.63;5094246;27;45311;-79
2023/03/07 09:27:57;;;;;;;;;61.75;52.25;;;;;6.41;56.73;98058.56;5094164;27;45249;-79
2023/03/07 09:30:24;;;;;;;;;51.33;36.00;;;;;6.50;56.19;98055.59;5093456;27;46620;-80
2023/03/07 09:32:49;;;;;;;;;46.00;32.00;;;;;6.60;55.87;98059.50;5093349;27;45341;-81
2023/03/07 09:35:15;;;;;;;;;48.67;38.00;;;;;6.68;55.41;98043.50;5092394;27;45405;-81
2023/03/07 09:37:43;;;;;;;;;49.33;38.00;;;;;6.75;55.12;98048.41;5094482;27;45214;-79
2023/03/07 09:40:17;;;;;;;;;36.00;32.00;;;;;6.83;54.06;98048.94;5097107;27;46288;-82
2023/03/07 09:43:15;;;;;;;;;40.67;36.00;;;;;6.90;54.08;98055.59;5100981;27;45370;-80
2023/03/07 09:45:50;;;;;;;;;46.67;38.00;;;;;6.96;53.18;98050.13;5099437;27;45407;-80
2023/03/07 09:48:50;;;;;;;;;46.33;36.00;;;;;7.07;53.71;98054.03;5097923;27;45401;-80
2023/03/07 09:51:35;;;;;;;;;39.67;33.67;;;;;7.16;53.27;98045.78;5086986;27;45311;-80
2023/03/07 09:54:07;;;;;;;;;36.00;33.33;;;;;7.24;53.75;98047.16;5097642;27;45462;-79
2023/03/07 09:56:45;;;;;;;;;33.00;29.00;;;;;7.32;51.88;98036.34;5097963;27;45466;-82
2023/03/07 09:59:24;;;;;;;;;40.00;29.33;;;;;7.46;51.78;98017.34;5100697;27;45431;-81
2023/03/07 10:02:20;;;;;;;;;33.33;25.33;;;;;7.63;50.73;98022.69;5095212;27;47162;-81
2023/03/07 10:04:56;;;;;;;;;35.33;32.33;;;;;7.71;50.11;98029.28;5088357;27;46309;-80
2023/03/07 10:07:25;;;;;;;;;29.67;28.00;;;;;7.74;50.39;98022.19;5097669;27;45451;-82
2023/03/07 10:10:27;;;;;;;;;33.67;28.00;;;;;7.70;50.32;98034.63;5097233;27;45439;-79
2023/03/07 10:13:02;;;;;;;;;30.33;25.00;;;;;7.65;48.87;98039.22;5092279;27;45294;-80
2023/03/07 10:15:46;;;;;;;;;27.67;26.00;;;;;7.59;50.04;98037.72;5097024;27;45434;-80
2023/03/07 10:18:43;;;;;;;;;37.67;31.67;;;;;7.60;50.69;98052.53;5096737;27;45348;-80
2023/03/07 10:21:35;;;;;;;;;44.67;36.67;;;;;7.56;49.15;98031.75;5096684;27;45448;-80
2023/03/07 10:24:12;;;;;;;;;33.33;27.33;;;;;7.50;49.96;98030.28;5095521;27;48356;-80
2023/03/07 10:26:49;;;;;;;;;35.67;30.67;;;;;7.46;49.58;98039.19;5085216;27;45352;-80
2023/03/07 10:29:22;;;;;;;;;37.33;32.33;;;;;7.46;49.87;98005.09;5112368;27;45349;-80
2023/03/07 10:31:53;;;;;;;;;34.00;29.33;;;;;7.58;50.33;97998.44;5096900;27;45257;-80
2023/03/07 10:34:29;;;;;;;;;39.33;33.67;;;;;7.68;50.41;98002.34;5096999;27;46236;-79
2023/03/07 10:36:59;;;;;;;;;37.00;35.33;;;;;7.78;49.90;97997.50;5096552;27;45424;-79
2023/03/07 10:39:37;;;;;;;;;43.00;35.67;;;;;7.88;49.41;98004.88;5095216;27;45394;-79
2023/03/07 10:42:02;;;;;;;;;41.00;34.67;;;;;7.95;48.24;98001.03;5095920;27;45415;-80
2023/03/07 10:44:32;;;;;;;;;37.67;34.33;;;;;8.00;50.05;97992.97;5096809;27;46223;-80
2023/03/07 10:46:59;;;;;;;;;30.00;29.00;;;;;8.02;49.25;97996.38;5097011;27;45348;-79
2023/03/07 10:49:32;;;;;;;;;35.67;32.67;;;;;7.99;50.06;97980.75;5096612;27;45492;-80
2023/03/07 10:52:11;;;;;;;;;33.33;30.67;;;;;7.94;50.25;97975.72;5096286;27;45396;-80
2023/03/07 10:54:38;;;;;;;;;32.33;27.67;;;;;8.00;49.11;97956.22;5094884;27;47308;-80
2023/03/07 10:57:09;;;;;;;;;38.33;32.33;;;;;8.17;50.33;97950.16;5094998;27;45687;-80
2023/03/07 10:59:37;;;;;;;;;35.00;30.00;;;;;8.37;50.25;97955.31;5096119;27;45394;-81
2023/03/07 11:02:35;;;;;;;;;40.67;33.33;;;;;8.61;48.79;97948.78;5095522;27;45458;-79
2023/03/07 11:05:16;;;;;;;;;34.33;30.33;;;;;8.78;48.32;97965.47;5095502;27;45416;-81
2023/03/07 11:07:42;;;;;;;;;34.67;30.00;;;;;8.84;47.60;97926.59;5094095;27;45431;-80
2023/03/07 11:10:31;;;;;;;;;36.00;32.00;;;;;8.95;48.05;97923.41;5095199;27;45475;-80
2023/03/07 11:12:57;;;;;;;;;37.00;31.00;;;;;8.99;48.06;97917.91;5095747;27;45394;-80
2023/03/07 11:15:23;;;;;;;;;34.67;30.33;;;;;9.11;47.94;97916.41;5096207;27;45386;-80
2023/03/07 11:17:50;;;;;;;;;34.67;28.67;;;;;9.24;46.94;97921.84;5095455;27;45493;-80
2023/03/07 11:20:23;;;;;;;;;39.33;32.67;;;;;9.29;46.85;97927.72;5096307;27;45451;-79
2023/03/07 11:22:59;;;;;;;;;25.67;21.00;;;;;9.36;46.99;97921.19;5096055;27;45323;-80
2023/03/07 11:25:25;;;;;;;;;31.33;25.00;;;;;9.47;46.76;97910.94;5095658;27;46209;-79
2023/03/07 11:27:55;;;;;;;;;20.67;18.00;;;;;9.57;46.17;97892.84;5096185;27;45418;-80
2023/03/07 11:30:39;;;;;;;;;28.67;24.33;;;;;9.67;46.15;97894.03;5095997;27;45418;-79